Flight Track Log - Related Links

Times and Time Zones

All times are in EDT time to prevent confusion due to time zone crossing. See the N894SA flight status page for this flight to view local times or setup timezone preferences in your user account.

Time Position Orientation Groundspeed Altitude Reporting Facility
EDT Latitude Longitude Course Direction KTS MPH feet Rate Location/Type
Fri 11:53:57 AM 27.3667 -82.5833 222° Southwest 81 93 1,000  Level Tampa TRACON
Fri 11:54:57 AM 27.3500 -82.6000 222° Southwest 97 112 1,600 650 Climbing Tampa TRACON
Fri 11:55:57 AM 27.3333 -82.6000 180° South 105 121 2,300 700 Climbing Tampa TRACON
Fri 11:56:57 AM 27.3000 -82.5833 156° South 104 120 3,000 619 Climbing Tampa TRACON
Fri 11:58:03 AM 27.2667 -82.5667 156° South 115 132 3,600 500 Climbing Tampa TRACON
Fri 11:58:57 AM 27.2500 -82.5500 138° Southeast 117 135 4,000 500 Climbing Tampa TRACON
Fri 12:00:03 PM 27.2167 -82.5167 138° Southeast 118 136 4,600 455 Climbing Tampa TRACON
Fri 12:01:09 PM 27.2000 -82.5000 138° Southeast 119 137 5,000 200 Climbing Tampa TRACON
Fri 12:02:03 PM 27.1667 -82.4667 138° Southeast 141 162 5,000  Level Tampa TRACON
Fri 12:03:03 PM 27.1333 -82.4333 138° Southeast 145 167 5,000  Level Tampa TRACON
Fri 12:05:00 PM 27.1154 -82.3659 107° East  Level FlightAware Approximate
Fri 12:12:00 PM 26.9882 -82.1486 160° South  Level FlightAware Approximate
Fri 12:13:00 PM 26.9579 -82.1365 160° South  Level FlightAware Approximate
Fri 12:14:00 PM 26.9277 -82.1244 160° South  Level FlightAware Approximate
Fri 12:15:00 PM 26.8974 -82.1123 160° South  Level FlightAware Approximate
Fri 12:16:00 PM 26.8671 -82.1002 160° South  Level FlightAware Approximate
Fri 12:17:00 PM 26.8375 -82.0864 157° South  Level FlightAware Approximate
Fri 12:18:00 PM 26.8078 -82.0726 157° South  Level FlightAware Approximate
Fri 12:19:00 PM 26.7781 -82.0587 157° South  Level FlightAware Approximate
Fri 12:20:00 PM 26.7484 -82.0449 157° South  Level FlightAware Approximate
Fri 12:21:00 PM 26.7188 -82.0311 157° South  Level FlightAware Approximate
Fri 12:22:00 PM 26.6891 -82.0173 157° South  Level FlightAware Approximate
Fri 12:23:00 PM 26.6594 -82.0035 157° South  Level FlightAware Approximate
Fri 12:24:00 PM 26.6298 -81.9898 157° South  Level FlightAware Approximate
Fri 12:25:00 PM 26.6001 -81.9760 157° South  Level FlightAware Approximate
Fri 12:26:00 PM 26.5704 -81.9622 157° South  Level FlightAware Approximate
Fri 12:27:00 PM 26.5407 -81.9485 157° South  Level FlightAware Approximate
Fri 12:28:00 PM 26.5110 -81.9347 157° South  Level FlightAware Approximate
Fri 12:29:00 PM 26.4814 -81.9210 157° South  Level FlightAware Approximate
Fri 12:30:00 PM 26.4517 -81.9072 157° South  Level FlightAware Approximate
Fri 12:31:00 PM 26.4220 -81.8935 157° South  Level FlightAware Approximate
Fri 12:32:00 PM 26.3923 -81.8798 158° South  Level FlightAware Approximate
Fri 12:33:00 PM 26.3626 -81.8663 158° South  Level FlightAware Approximate
Fri 12:34:00 PM 26.3328 -81.8528 158° South  Level FlightAware Approximate
Fri 12:35:00 PM 26.3031 -81.8392 158° South  Level FlightAware Approximate
Fri 12:36:00 PM 26.2733 -81.8257 158° South  Level FlightAware Approximate
Fri 12:37:00 PM 26.2436 -81.8122 158° South  Level FlightAware Approximate
Fri 12:38:00 PM 26.2139 -81.7986 156° South  Level FlightAware Approximate
Fri 12:39:00 PM 26.1845 -81.7839 156° South  Level FlightAware Approximate
Fri 12:40:00 PM 26.1552 -81.7693 156° South  Level FlightAware Approximate
Fri 12:41:00 PM 26.1500 -81.7667 156° South  Level FlightAware Approximate
Fri 12:42:00 PM 26.1524 -81.7756 156° South  Level Estimated
Fri 12:43:00 PM 26.1524 -81.7756 156° South  Level Estimated
Fri 12:44:00 PM 26.1524 -81.7756 156° South  Level Estimated
Fri 12:45:00 PM 26.1524 -81.7756 156° South  Level Estimated
Fri 12:46:00 PM 26.1524 -81.7756 156° South  Level Estimated
Fri 12:47:00 PM 26.1524 -81.7756 156° South  Level Estimated
Fri 12:48:00 PM 26.1524 -81.7756 156° South  Level Estimated

Login

Don't have an account? Register now (free) for customized features, flight alerts, and more!